createdAt,value
2019-04-05T18:12:08.797Z,70.60
2019-04-05T18:14:41.229Z,68.92
2019-04-05T18:17:12.818Z,69.77
2019-04-05T18:19:44.454Z,70.05
2019-04-05T18:22:16.007Z,51.63
2019-04-05T18:24:47.531Z,41.02
2019-04-05T18:27:19.176Z,39.90
2019-04-05T18:29:50.918Z,40.85
2019-04-05T18:32:22.588Z,36.33
2019-04-05T18:34:54.360Z,41.70
2019-04-05T18:37:26.092Z,51.98
2019-04-05T18:39:57.722Z,43.87
2019-04-05T18:42:29.416Z,42.50
2019-04-05T18:45:00.903Z,39.42
2019-04-05T18:47:34.718Z,45.35
2019-04-05T18:50:07.555Z,44.67
2019-04-05T18:52:39.414Z,46.70
2019-04-05T18:55:10.942Z,41.20
2019-04-05T18:57:42.608Z,49.13
2019-04-05T19:00:14.155Z,57.65
2019-04-05T19:02:45.861Z,58.23
2019-04-05T19:05:17.644Z,57.00
2019-04-05T19:07:50.164Z,57.08
2019-04-05T19:10:21.620Z,59.48
2019-04-05T19:12:53.403Z,59.30
2019-04-05T19:15:25.133Z,57.15
2019-04-05T19:17:56.807Z,59.10
2019-04-05T19:20:28.406Z,57.43
2019-04-05T19:22:59.881Z,54.67
2019-04-05T19:25:31.528Z,46.73
2019-04-05T19:28:03.018Z,53.42
2019-04-05T19:48:30.626Z,30.72
2019-04-05T19:51:48.541Z,36.75
2019-04-05T19:54:27.664Z,33.50
2019-04-05T19:56:59.489Z,36.88
2019-04-05T19:59:31.587Z,41.65
2019-04-05T20:02:03.500Z,36.93
2019-04-05T20:04:35.433Z,35.28
2019-04-05T20:07:07.412Z,37.30
2019-04-05T20:09:39.525Z,42.15
2019-04-05T20:12:12.895Z,37.58
2019-04-05T20:14:44.901Z,35.40
2019-04-05T20:17:16.854Z,39.98
2019-04-05T20:19:48.658Z,37.23
2019-04-05T20:22:20.347Z,39.25
2019-04-05T20:24:52.163Z,36.95
2019-04-05T20:27:24.064Z,38.70
2019-04-05T20:29:55.830Z,40.58
2019-04-05T20:32:27.731Z,42.20
2019-04-05T20:35:00.930Z,38.10
2019-04-05T20:37:32.553Z,33.00
2019-04-05T20:40:08.678Z,39.15
2019-04-05T20:42:40.269Z,30.90
2019-04-05T20:45:12.909Z,39.05
2019-04-05T20:47:44.451Z,37.53
2019-04-05T20:50:16.074Z,41.77
2019-04-05T20:52:47.793Z,37.70
2019-04-05T20:55:19.508Z,35.55
2019-04-05T20:57:50.936Z,36.53
2019-04-05T21:00:22.415Z,37.58
2019-04-05T21:02:53.933Z,46.75
2019-04-05T21:05:25.880Z,38.90
2019-04-05T21:07:57.383Z,40.40
2019-04-05T21:10:29.158Z,41.15
2019-04-05T21:13:00.860Z,43.02
2019-04-05T21:15:32.842Z,39.95
2019-04-05T21:18:04.376Z,47.17
2019-04-05T21:20:36.066Z,45.30
2019-04-05T21:23:07.823Z,44.00
2019-04-05T21:25:39.327Z,45.43
2019-04-05T21:28:10.929Z,47.35
2019-04-05T21:30:42.521Z,38.00
2019-04-05T21:33:14.107Z,41.88
2019-04-05T21:35:46.275Z,41.70
2019-04-05T21:38:18.404Z,38.02
2019-04-05T21:40:49.958Z,41.28
2019-04-05T21:43:21.556Z,38.25
2019-04-05T21:45:53.324Z,34.90
2019-04-05T21:48:24.966Z,34.85
2019-04-05T21:50:56.592Z,38.75
2019-04-05T21:53:28.124Z,40.73
2019-04-05T21:55:59.708Z,43.80
2019-04-05T21:58:31.519Z,36.08
2019-04-05T22:01:07.337Z,34.55
2019-04-05T22:03:40.870Z,40.83
2019-04-05T22:06:12.594Z,42.55
2019-04-05T22:08:44.191Z,38.73
2019-04-05T22:11:15.673Z,38.23
2019-04-05T22:13:47.388Z,38.88
2019-04-05T22:16:19.074Z,40.48
2019-04-05T22:18:50.639Z,46.68
2019-04-05T22:21:22.295Z,38.60
2019-04-05T22:23:53.897Z,43.50
2019-04-05T22:26:25.434Z,45.58
2019-04-05T22:28:56.991Z,43.52
2019-04-05T22:31:29.547Z,43.40
2019-04-05T22:34:01.250Z,40.08
2019-04-05T22:36:32.726Z,40.05
2019-04-05T22:39:05.522Z,51.73
2019-04-05T22:41:37.976Z,43.85
2019-04-05T22:44:09.796Z,40.20
2019-04-05T22:46:41.449Z,42.17
2019-04-05T22:49:14.259Z,41.10
2019-04-05T22:51:46.070Z,43.13
2019-04-05T22:54:17.583Z,44.10
2019-04-05T22:56:49.252Z,39.75
2019-04-05T22:59:20.907Z,40.90
2019-04-05T23:01:52.568Z,44.60
2019-04-05T23:04:24.181Z,44.10
2019-04-05T23:06:55.906Z,41.37
2019-04-05T23:09:27.480Z,44.58
2019-04-05T23:11:59.167Z,44.23
2019-04-05T23:14:30.689Z,50.08
2019-04-05T23:17:02.568Z,45.78
2019-04-05T23:19:35.268Z,44.08
2019-04-05T23:22:06.843Z,42.83
2019-04-05T23:24:38.513Z,43.85
2019-04-05T23:27:10.220Z,44.35
2019-04-05T23:29:41.833Z,46.10
2019-04-05T23:32:13.632Z,48.87
2019-04-05T23:34:45.238Z,40.83
2019-04-05T23:37:17.027Z,40.50
2019-04-05T23:39:48.714Z,41.50
2019-04-05T23:42:20.305Z,50.63
2019-04-05T23:44:51.819Z,43.80
2019-04-05T23:47:24.694Z,41.37
2019-04-05T23:49:56.790Z,39.92
2019-04-05T23:52:28.369Z,42.43
2019-04-05T23:55:33.415Z,41.33
2019-04-05T23:58:02.161Z,43.38
